createdAt,value
2019-01-06T00:01:46.228Z,6.13
2019-01-06T00:04:19.937Z,6.10
2019-01-06T00:07:08.255Z,6.12
2019-01-06T00:09:43.030Z,6.13
2019-01-06T00:12:37.102Z,6.16
2019-01-06T00:15:29.278Z,6.12
2019-01-06T00:18:04.346Z,6.10
2019-01-06T00:20:53.503Z,6.08
2019-01-06T00:23:42.006Z,6.10
2019-01-06T00:26:29.459Z,6.14
2019-01-06T00:29:14.409Z,6.14
2019-01-06T00:31:55.780Z,6.13
2019-01-06T00:34:35.197Z,6.11
2019-01-06T00:37:19.219Z,6.09
2019-01-06T00:39:52.482Z,6.11
2019-01-06T00:42:33.490Z,6.09
2019-01-06T00:45:16.598Z,6.10
2019-01-06T00:47:52.805Z,5.99
2019-01-06T00:50:41.535Z,5.93
2019-01-06T00:53:30.160Z,5.90
2019-01-06T00:56:02.134Z,5.83
2019-01-06T00:58:35.581Z,5.82
2019-01-06T01:01:11.968Z,5.78
2019-01-06T01:03:53.584Z,5.80
2019-01-06T01:06:42.268Z,5.76
2019-01-06T01:09:44.263Z,5.67
2019-01-06T01:12:34.003Z,5.69
2019-01-06T01:15:14.594Z,5.73
2019-01-06T01:18:02.027Z,5.68
2019-01-06T01:20:35.775Z,5.64
2019-01-06T01:23:22.970Z,5.68
2019-01-06T01:26:10.624Z,5.67
2019-01-06T01:28:44.361Z,5.68
2019-01-06T01:31:18.226Z,5.61
2019-01-06T01:34:04.596Z,5.61
2019-01-06T01:36:52.083Z,5.62
2019-01-06T01:39:39.306Z,5.60
2019-01-06T01:42:10.337Z,5.61
2019-01-06T01:44:57.747Z,5.63
2019-01-06T01:47:43.821Z,5.66
2019-01-06T01:50:17.614Z,5.64
2019-01-06T01:52:48.563Z,5.66
2019-01-06T01:55:37.872Z,5.68
2019-01-06T01:58:25.348Z,5.71
2019-01-06T02:01:02.623Z,5.70
2019-01-06T02:03:48.936Z,5.69
2019-01-06T02:06:26.484Z,5.75
2019-01-06T02:09:13.652Z,5.82
2019-01-06T02:11:47.665Z,5.78
2019-01-06T02:14:35.108Z,5.73
2019-01-06T02:17:22.732Z,5.73
2019-01-06T02:19:53.825Z,5.73
2019-01-06T02:22:42.980Z,5.69
2019-01-06T02:25:25.888Z,5.74
2019-01-06T02:28:02.766Z,5.72
2019-01-06T02:30:39.627Z,5.80
2019-01-06T02:33:10.714Z,5.72
2019-01-06T02:35:47.753Z,5.71
2019-01-06T02:38:24.498Z,5.85
2019-01-06T02:41:11.545Z,5.76
2019-01-06T02:43:45.352Z,5.75
2019-01-06T02:46:32.750Z,5.71
2019-01-06T02:49:19.132Z,5.75
2019-01-06T02:51:53.110Z,5.76
2019-01-06T02:54:24.183Z,5.79
2019-01-06T02:57:04.440Z,5.75
2019-01-06T02:59:51.808Z,5.75
2019-01-06T03:02:25.627Z,5.77
2019-01-06T03:05:08.702Z,5.80
2019-01-06T03:07:51.612Z,5.84
2019-01-06T03:10:38.690Z,5.82
2019-01-06T03:13:12.742Z,5.80
2019-01-06T03:15:46.611Z,5.75
2019-01-06T03:18:33.770Z,5.77
2019-01-06T03:21:20.885Z,5.79
2019-01-06T03:24:07.198Z,5.80
2019-01-06T03:26:41.131Z,5.80
2019-01-06T03:29:30.093Z,5.72
2019-01-06T03:32:13.069Z,5.71
2019-01-06T03:34:50.180Z,5.73
2019-01-06T03:37:37.441Z,5.71
2019-01-06T03:40:09.387Z,5.70
2019-01-06T03:42:52.647Z,5.73
2019-01-06T03:45:40.378Z,5.71
2019-01-06T03:48:11.464Z,5.66
2019-01-06T03:50:45.427Z,5.71
2019-01-06T03:53:19.207Z,5.74
2019-01-06T03:55:53.225Z,5.79
2019-01-06T03:58:30.530Z,5.72
2019-01-06T04:01:01.732Z,5.72
2019-01-06T04:03:41.963Z,5.66
2019-01-06T04:06:18.970Z,5.69
2019-01-06T04:08:53.082Z,5.66
2019-01-06T04:11:30.018Z,5.70
2019-01-06T04:14:07.329Z,5.65
2019-01-06T04:16:56.783Z,5.70
2019-01-06T04:19:30.637Z,5.68
2019-01-06T04:22:19.490Z,5.65
2019-01-06T04:24:59.393Z,5.68
2019-01-06T04:27:46.459Z,5.68
2019-01-06T04:30:23.271Z,5.68
2019-01-06T04:33:06.340Z,5.70
2019-01-06T04:35:37.563Z,5.66
2019-01-06T04:38:08.754Z,5.72
2019-01-06T04:40:39.786Z,5.71
2019-01-06T04:43:13.706Z,5.79
2019-01-06T04:45:53.959Z,5.80
2019-01-06T04:48:24.922Z,5.73
2019-01-06T04:50:56.066Z,5.81
2019-01-06T04:53:27.153Z,5.76
2019-01-06T04:55:58.299Z,5.76
2019-01-06T04:58:44.358Z,5.75
2019-01-06T05:01:31.852Z,5.80
2019-01-06T05:04:02.841Z,5.77
2019-01-06T05:06:33.842Z,5.76
2019-01-06T05:09:17.093Z,5.75
2019-01-06T05:12:04.455Z,5.76
2019-01-06T05:14:35.430Z,5.81
2019-01-06T05:17:15.158Z,5.77
2019-01-06T05:19:46.124Z,5.77
2019-01-06T05:22:17.047Z,6.14
2019-01-06T05:25:04.017Z,6.56
2019-01-06T05:27:34.981Z,6.65
2019-01-06T05:30:07.088Z,6.96
2019-01-06T05:32:50.303Z,6.35
2019-01-06T05:35:36.347Z,6.55
2019-01-06T05:38:23.595Z,6.65
2019-01-06T05:41:10.817Z,6.79
2019-01-06T05:43:57.941Z,6.75
2019-01-06T05:46:44.840Z,6.61
2019-01-06T05:49:27.857Z,6.37
2019-01-06T05:52:15.680Z,6.62
2019-01-06T05:54:46.659Z,7.09
2019-01-06T05:57:17.639Z,6.63
2019-01-06T06:00:04.701Z,6.48
2019-01-06T06:02:54.001Z,6.80
2019-01-06T06:05:33.862Z,6.73
2019-01-06T06:08:04.835Z,6.74
2019-01-06T06:10:38.230Z,6.63
2019-01-06T06:13:27.229Z,6.36
2019-01-06T06:16:14.261Z,6.53
2019-01-06T06:19:01.650Z,6.24
2019-01-06T06:21:48.491Z,6.91
2019-01-06T06:24:19.453Z,6.49
2019-01-06T06:27:05.449Z,6.66
2019-01-06T06:29:52.438Z,6.67
2019-01-06T06:32:26.053Z,7.00
2019-01-06T06:35:02.821Z,7.05
2019-01-06T06:37:50.090Z,6.91
2019-01-06T06:40:27.099Z,6.77
2019-01-06T06:43:14.350Z,6.56
2019-01-06T06:46:01.543Z,6.57
2019-01-06T06:48:41.307Z,6.86
2019-01-06T06:51:27.494Z,6.06
2019-01-06T06:54:10.507Z,5.81
2019-01-06T06:56:44.412Z,5.93
2019-01-06T06:59:21.379Z,5.86
2019-01-06T07:02:06.963Z,5.74
2019-01-06T07:04:37.927Z,5.59
2019-01-06T07:07:11.575Z,5.57
2019-01-06T07:09:51.684Z,5.62
2019-01-06T07:12:38.881Z,5.51
2019-01-06T07:15:15.882Z,5.83
2019-01-06T07:17:56.170Z,5.55
2019-01-06T07:20:48.419Z,5.60
2019-01-06T07:23:35.887Z,5.52
2019-01-06T07:26:23.274Z,5.49
2019-01-06T07:29:06.567Z,5.50
2019-01-06T07:31:43.544Z,5.44
2019-01-06T07:34:30.875Z,5.44
2019-01-06T07:37:07.860Z,5.71
2019-01-06T07:39:44.639Z,5.62
2019-01-06T07:42:21.796Z,5.50
2019-01-06T07:44:55.625Z,5.51
2019-01-06T07:47:26.849Z,5.46
2019-01-06T07:50:12.871Z,5.39
2019-01-06T07:52:55.672Z,5.53
2019-01-06T07:55:27.136Z,5.52
2019-01-06T07:58:01.038Z,5.69
2019-01-06T08:00:34.782Z,5.51
2019-01-06T08:03:15.009Z,5.48
2019-01-06T08:05:49.134Z,5.39
2019-01-06T08:08:36.601Z,5.50
2019-01-06T08:11:25.870Z,5.53
2019-01-06T08:13:56.961Z,5.49
2019-01-06T08:16:36.967Z,5.51
2019-01-06T08:19:08.010Z,5.60
2019-01-06T08:21:41.610Z,5.51
2019-01-06T08:24:12.653Z,5.47
2019-01-06T08:26:52.659Z,5.49
2019-01-06T08:29:39.570Z,5.51
2019-01-06T08:32:10.664Z,5.47
2019-01-06T08:34:44.595Z,5.47
2019-01-06T08:37:24.728Z,5.46
2019-01-06T08:40:01.812Z,5.75
2019-01-06T08:42:49.340Z,5.64
2019-01-06T08:45:37.793Z,5.56
2019-01-06T08:48:24.899Z,5.57
2019-01-06T08:50:59.433Z,5.91
2019-01-06T08:53:45.676Z,6.03
2019-01-06T08:56:16.839Z,5.95
2019-01-06T08:58:50.630Z,5.79
2019-01-06T09:01:37.192Z,6.16
2019-01-06T09:04:08.175Z,5.98
2019-01-06T09:06:41.917Z,6.05
2019-01-06T09:09:22.346Z,6.03
2019-01-06T09:12:05.315Z,5.95
2019-01-06T09:14:42.222Z,6.14
2019-01-06T09:17:16.145Z,6.05
2019-01-06T09:19:50.672Z,5.93
2019-01-06T09:22:38.547Z,6.11
2019-01-06T09:25:12.370Z,6.07
2019-01-06T09:27:43.355Z,5.89
2019-01-06T09:30:29.644Z,6.03
2019-01-06T09:33:00.590Z,6.18
2019-01-06T09:35:34.350Z,6.05
2019-01-06T09:38:08.112Z,6.31
2019-01-06T09:40:55.558Z,5.69
2019-01-06T09:43:38.227Z,6.10
2019-01-06T09:46:12.270Z,6.05
2019-01-06T09:48:46.010Z,6.05
2019-01-06T09:51:28.880Z,6.20
2019-01-06T09:54:16.263Z,6.16
2019-01-06T09:56:56.115Z,6.35
2019-01-06T09:59:43.271Z,6.29
2019-01-06T10:02:30.403Z,6.29
2019-01-06T10:05:16.725Z,6.23
2019-01-06T10:07:59.820Z,6.24
2019-01-06T10:10:47.956Z,6.26
2019-01-06T10:13:35.039Z,6.38
2019-01-06T10:16:11.946Z,6.30
2019-01-06T10:18:59.291Z,6.37
2019-01-06T10:21:46.197Z,6.31
2019-01-06T10:24:32.556Z,6.41
2019-01-06T10:27:06.667Z,6.32
2019-01-06T10:29:53.793Z,6.35
2019-01-06T10:32:41.368Z,6.40
2019-01-06T10:35:28.820Z,6.28
2019-01-06T10:38:02.595Z,6.20
2019-01-06T10:40:33.722Z,6.16
2019-01-06T10:43:04.787Z,6.13
2019-01-06T10:45:35.786Z,6.10
2019-01-06T10:48:09.946Z,5.97
2019-01-06T10:54:00.962Z,6.03
2019-01-06T10:56:41.133Z,6.11
2019-01-06T10:59:15.371Z,5.98
2019-01-06T11:01:52.332Z,5.97
2019-01-06T11:04:38.501Z,5.79
2019-01-06T11:07:18.945Z,5.78
2019-01-06T11:09:56.199Z,5.87
2019-01-06T11:12:43.628Z,5.93
2019-01-06T11:15:20.386Z,5.99
2019-01-06T11:17:51.526Z,5.94
2019-01-06T11:20:25.923Z,5.85
2019-01-06T11:23:02.975Z,5.89
2019-01-06T11:25:36.925Z,5.75
2019-01-06T11:28:10.744Z,5.87
2019-01-06T11:30:48.064Z,5.85
2019-01-06T11:33:19.122Z,5.87
2019-01-06T11:36:06.474Z,5.78
2019-01-06T11:38:46.297Z,5.73
2019-01-06T11:41:33.516Z,5.75
2019-01-06T11:44:07.267Z,5.92
2019-01-06T11:46:53.008Z,5.86
2019-01-06T11:49:40.299Z,5.86
2019-01-06T11:52:11.414Z,5.96
2019-01-06T11:54:58.742Z,5.91
2019-01-06T11:57:29.769Z,5.72
2019-01-06T12:00:09.622Z,5.85
2019-01-06T12:02:46.728Z,5.86
2019-01-06T12:05:20.814Z,5.88
2019-01-06T12:08:05.769Z,5.92
2019-01-06T12:10:49.733Z,5.85
2019-01-06T12:13:23.530Z,6.03
2019-01-06T12:16:03.411Z,6.06
2019-01-06T12:18:37.361Z,6.04
2019-01-06T12:21:11.274Z,6.04
2019-01-06T12:23:42.442Z,5.81
2019-01-06T12:26:29.769Z,5.90
2019-01-06T12:29:18.565Z,5.92
2019-01-06T12:32:05.482Z,5.86
2019-01-06T12:34:52.700Z,5.90
2019-01-06T12:37:38.380Z,6.73
2019-01-06T12:40:24.868Z,7.08
2019-01-06T12:43:12.203Z,7.08
2019-01-06T12:45:49.362Z,7.34
2019-01-06T12:48:22.828Z,7.48
2019-01-06T12:50:56.549Z,7.74
2019-01-06T12:53:43.554Z,7.92
2019-01-06T12:56:14.525Z,8.36
2019-01-06T12:59:01.902Z,7.56
2019-01-06T13:01:48.389Z,7.56
2019-01-06T13:04:22.065Z,6.74
2019-01-06T13:06:58.997Z,6.58
2019-01-06T13:09:29.942Z,6.30
2019-01-06T13:12:17.458Z,6.29
2019-01-06T13:14:54.497Z,6.65
2019-01-06T13:17:25.524Z,6.59
2019-01-06T13:20:12.594Z,6.34
2019-01-06T13:22:59.971Z,6.20
2019-01-06T13:25:33.918Z,6.16
2019-01-06T13:28:10.689Z,6.04
2019-01-06T13:30:47.482Z,6.05
2019-01-06T13:33:21.445Z,6.02
2019-01-06T13:36:08.481Z,6.07
2019-01-06T13:38:43.754Z,6.14
2019-01-06T13:41:30.579Z,6.11
2019-01-06T13:44:07.126Z,6.15
2019-01-06T13:46:38.102Z,6.24
2019-01-06T13:49:25.096Z,6.25
2019-01-06T13:52:12.015Z,6.19
2019-01-06T13:55:01.076Z,6.23
2019-01-06T13:57:40.960Z,6.06
2019-01-06T14:00:12.507Z,6.10
2019-01-06T14:02:59.841Z,6.01
2019-01-06T14:05:47.174Z,6.00
2019-01-06T14:08:26.960Z,6.01
2019-01-06T14:11:00.569Z,5.99
2019-01-06T14:13:34.205Z,5.99
2019-01-06T14:16:11.251Z,6.01
2019-01-06T14:18:42.239Z,6.06
2019-01-06T14:21:29.547Z,6.21
2019-01-06T14:24:06.076Z,6.39
2019-01-06T14:26:53.155Z,6.35
2019-01-06T14:29:24.115Z,6.47
2019-01-06T14:32:13.406Z,6.35
2019-01-06T14:34:46.826Z,6.42
2019-01-06T14:37:34.037Z,6.29
2019-01-06T14:40:05.087Z,6.40
2019-01-06T14:42:52.407Z,6.52
2019-01-06T14:45:23.368Z,6.57
2019-01-06T14:48:12.610Z,6.44
2019-01-06T14:50:43.589Z,6.53
2019-01-06T14:53:30.633Z,6.49
2019-01-06T14:56:16.772Z,6.21
2019-01-06T14:58:47.764Z,6.27
2019-01-06T15:01:18.726Z,6.24
2019-01-06T15:03:52.408Z,6.27
2019-01-06T15:06:39.829Z,6.35
2019-01-06T15:09:19.736Z,6.47
2019-01-06T15:12:07.071Z,6.41
2019-01-06T15:14:53.146Z,6.31
2019-01-06T15:17:33.242Z,6.19
2019-01-06T15:20:22.430Z,6.35
2019-01-06T15:23:02.744Z,6.53
2019-01-06T15:25:48.486Z,6.49
2019-01-06T15:28:22.367Z,6.42
2019-01-06T15:31:05.449Z,6.55
2019-01-06T15:33:52.802Z,6.60
2019-01-06T15:36:26.428Z,6.60
2019-01-06T15:39:00.130Z,6.75
2019-01-06T15:41:31.060Z,6.78
2019-01-06T15:44:17.302Z,6.89
2019-01-06T15:46:49.117Z,6.89
2019-01-06T15:49:36.023Z,7.10
2019-01-06T15:52:24.967Z,7.01
2019-01-06T15:54:55.900Z,7.02
2019-01-06T15:57:29.807Z,7.09
2019-01-06T16:00:06.481Z,7.02
2019-01-06T16:02:46.285Z,7.00
2019-01-06T16:05:33.440Z,6.89
2019-01-06T16:08:20.832Z,6.79
2019-01-06T16:11:03.649Z,6.80
2019-01-06T16:13:37.263Z,6.74
2019-01-06T16:16:17.096Z,7.09
2019-01-06T16:18:57.163Z,6.86
2019-01-06T16:21:30.524Z,6.74
2019-01-06T16:24:17.441Z,6.78
2019-01-06T16:26:48.398Z,6.99
2019-01-06T16:29:25.134Z,6.74
2019-01-06T16:32:12.444Z,6.73
2019-01-06T16:34:59.997Z,6.81
2019-01-06T16:37:36.667Z,6.88
2019-01-06T16:40:21.528Z,6.72
2019-01-06T16:43:07.404Z,6.74
2019-01-06T16:45:38.707Z,6.80
2019-01-06T16:48:24.836Z,6.87
2019-01-06T16:50:55.968Z,6.56
2019-01-06T16:53:43.366Z,6.51
2019-01-06T16:56:29.130Z,6.45
2019-01-06T16:59:00.055Z,6.41
2019-01-06T17:01:46.971Z,6.29
2019-01-06T17:04:36.326Z,6.30
2019-01-06T17:07:10.319Z,6.22
2019-01-06T17:09:47.417Z,6.06
2019-01-06T17:12:34.823Z,6.06
2019-01-06T17:15:12.933Z,6.06
2019-01-06T17:17:53.135Z,6.11
2019-01-06T17:20:39.185Z,6.20
2019-01-06T17:23:15.951Z,6.16
2019-01-06T17:25:49.845Z,6.17
2019-01-06T17:28:20.810Z,6.10
2019-01-06T17:30:54.890Z,6.05
2019-01-06T17:33:25.846Z,6.10
2019-01-06T17:35:59.490Z,6.11
2019-01-06T17:38:48.455Z,6.12
2019-01-06T17:41:22.327Z,6.05
2019-01-06T17:44:09.426Z,6.13
2019-01-06T17:46:49.299Z,6.20
2019-01-06T17:49:26.499Z,6.18
2019-01-06T17:52:00.272Z,6.22
2019-01-06T17:54:36.879Z,6.16
2019-01-06T17:57:13.665Z,6.16
2019-01-06T17:59:57.449Z,6.16
2019-01-06T18:02:44.512Z,6.20
2019-01-06T18:05:21.250Z,6.09
2019-01-06T18:08:08.673Z,6.15
2019-01-06T18:10:48.262Z,6.14
2019-01-06T18:13:37.571Z,6.07
2019-01-06T18:16:11.336Z,6.03
2019-01-06T18:18:48.085Z,6.05
2019-01-06T18:21:21.713Z,6.26
2019-01-06T18:24:07.820Z,6.11
2019-01-06T18:26:56.776Z,6.18
2019-01-06T18:29:45.979Z,6.15
2019-01-06T18:32:16.921Z,6.12
2019-01-06T18:34:48.112Z,6.05
2019-01-06T18:37:19.196Z,6.12
2019-01-06T18:40:06.679Z,6.09
2019-01-06T18:42:37.638Z,6.12
2019-01-06T18:45:20.337Z,5.92
2019-01-06T18:47:51.377Z,6.15
2019-01-06T18:50:34.298Z,6.20
2019-01-06T18:53:10.967Z,6.21
2019-01-06T18:55:41.946Z,6.08
2019-01-06T18:58:30.900Z,6.04
2019-01-06T19:01:18.151Z,6.02
2019-01-06T19:03:49.140Z,6.01
2019-01-06T19:06:28.945Z,6.05
2019-01-06T19:09:16.437Z,6.01
2019-01-06T19:11:47.423Z,6.01
2019-01-06T19:14:18.366Z,6.06
2019-01-06T19:17:07.153Z,6.11
2019-01-06T19:19:50.049Z,6.11
2019-01-06T19:22:37.190Z,6.06
2019-01-06T19:25:12.445Z,6.03
2019-01-06T19:27:46.145Z,6.13
2019-01-06T19:30:17.077Z,6.00
2019-01-06T19:32:48.190Z,6.05
2019-01-06T19:35:35.589Z,6.05
2019-01-06T19:38:18.314Z,6.21
2019-01-06T19:41:07.359Z,6.10
2019-01-06T19:43:47.308Z,6.20
2019-01-06T19:46:30.333Z,6.19
2019-01-06T19:49:04.020Z,6.17
2019-01-06T19:51:37.697Z,6.14
2019-01-06T19:54:17.418Z,6.12
2019-01-06T19:57:06.330Z,6.05
2019-01-06T19:59:43.040Z,6.02
2019-01-06T20:02:29.239Z,6.07
2019-01-06T20:05:00.214Z,6.08
2019-01-06T20:07:31.728Z,6.06
2019-01-06T20:10:11.340Z,5.98
2019-01-06T20:12:58.424Z,6.11
2019-01-06T20:15:44.707Z,6.13
2019-01-06T20:18:34.048Z,6.02
2019-01-06T20:21:10.858Z,6.06
2019-01-06T20:23:44.748Z,6.03
2019-01-06T20:26:30.681Z,5.82
2019-01-06T20:29:04.320Z,6.01
2019-01-06T20:31:38.372Z,5.97
2019-01-06T20:34:25.523Z,5.99
2019-01-06T20:37:14.584Z,5.99
2019-01-06T20:40:01.567Z,5.90
2019-01-06T20:42:47.626Z,5.95
2019-01-06T20:45:30.744Z,6.03
2019-01-06T20:48:01.719Z,5.98
2019-01-06T20:50:49.201Z,6.13
2019-01-06T20:53:20.153Z,6.01
2019-01-06T20:55:51.121Z,6.01
2019-01-06T20:58:22.085Z,6.00
2019-01-06T21:00:53.142Z,6.06
2019-01-06T21:03:37.159Z,5.99
2019-01-06T21:06:11.112Z,6.05
2019-01-06T21:08:58.548Z,6.01
2019-01-06T21:11:45.921Z,6.05
2019-01-06T21:14:33.124Z,6.11
2019-01-06T21:17:10.189Z,6.32
2019-01-06T21:19:48.913Z,6.11
2019-01-06T21:22:35.038Z,6.35
2019-01-06T21:25:21.491Z,6.38
2019-01-06T21:28:08.599Z,6.38
2019-01-06T21:30:39.714Z,6.38
2019-01-06T21:33:10.656Z,6.50
2019-01-06T21:35:57.686Z,6.42
2019-01-06T21:38:43.933Z,6.36
2019-01-06T21:41:14.905Z,6.12
2019-01-06T21:44:01.953Z,5.96
2019-01-06T21:46:39.071Z,5.71
2019-01-06T21:49:16.199Z,5.71
2019-01-06T21:52:02.075Z,5.75
2019-01-06T21:54:44.781Z,5.80
2019-01-06T21:57:33.740Z,5.93
2019-01-06T22:00:13.674Z,5.94
2019-01-06T22:02:51.089Z,5.87
2019-01-06T22:05:28.068Z,5.76
2019-01-06T22:08:08.002Z,5.63
2019-01-06T22:10:50.998Z,5.85
2019-01-06T22:13:24.999Z,5.99
2019-01-06T22:16:13.767Z,6.01
2019-01-06T22:19:00.598Z,5.82
2019-01-06T22:21:40.066Z,5.67
2019-01-06T22:24:13.650Z,5.60
2019-01-06T22:26:56.148Z,5.85
2019-01-06T22:29:38.887Z,5.72
2019-01-06T22:32:21.409Z,5.70
2019-01-06T22:35:10.643Z,5.82
2019-01-06T22:37:41.607Z,5.78
2019-01-06T22:40:29.058Z,5.68
2019-01-06T22:43:16.312Z,5.79
2019-01-06T22:45:47.404Z,5.76
2019-01-06T22:48:21.164Z,5.95
2019-01-06T22:50:54.912Z,5.99
2019-01-06T22:53:44.078Z,5.91
2019-01-06T22:56:20.719Z,5.84
2019-01-06T22:58:54.643Z,5.92
2019-01-06T23:01:28.349Z,5.78
2019-01-06T23:04:11.249Z,5.88
2019-01-06T23:07:00.136Z,5.85
2019-01-06T23:09:33.850Z,5.81
2019-01-06T23:12:13.935Z,5.86
2019-01-06T23:14:50.319Z,5.89
2019-01-06T23:17:24.201Z,5.89
2019-01-06T23:19:55.160Z,5.85
2019-01-06T23:22:42.090Z,5.87
2019-01-06T23:25:13.057Z,5.87
2019-01-06T23:27:53.033Z,5.77
2019-01-06T23:30:29.896Z,5.76
2019-01-06T23:33:17.509Z,5.76
2019-01-06T23:35:51.433Z,5.77
2019-01-06T23:38:34.547Z,5.82
2019-01-06T23:41:21.879Z,5.74
2019-01-06T23:44:01.836Z,5.81
2019-01-06T23:46:38.637Z,5.69
2019-01-06T23:49:09.579Z,5.65
2019-01-06T23:51:56.647Z,5.56
2019-01-06T23:54:30.043Z,5.45
2019-01-06T23:57:01.015Z,5.42
2019-01-06T23:59:48.130Z,5.45
